x

Point Arguello, Ca (ptgc1) Weather Station

11:00pm - Fri 21st Jul 2017 All times are PDT. -7 hours from GMT.

  • Wind
    28mph, 30mph gusts
  • Air Temp 57°f
  • Sea Pressure 1013.5mb
  • Point Arguello, Ca
  • Point Arguello, Ca

More Historic Weather Station data

Upgrade to MSW Pro to gain access to the past 30 days of data for over 8000 Wavebouys and Weather Stations around the globe.

Join Pro

Comparision Forecast

View Surf forecast
   
Fri 07/21 11:00pm 28 30 mph 1013.5mb 57f
10:00pm 31 33 mph 1013.2mb 57f
9:00pm 31 32 mph 1013.4mb 57f
8:00pm 31 34 mph 1013.1mb 57f
7:00pm 31 33 mph 1013.2mb 58f
6:00pm 29 30 mph 1013.6mb 58f
5:00pm 26 28 mph 1014.1mb 58f
4:00pm 24 26 mph 1014.9mb 57f
3:00pm 24 25 mph 1015.5mb 57f
2:00pm 21 22 mph 1015.9mb 57f
1:00pm 21 22 mph 1016.2mb 57f
12:00pm 21 22 mph 1016.5mb 56f
11:00am 17 18 mph 1016.6mb 56f
10:00am 20 22 mph 1016.3mb 55f
9:00am 23 25 mph 1015.9mb 55f
8:00am 22 23 mph 1015.5mb 55f
7:00am 21 22 mph 1015.2mb 55f
6:00am 23 25 mph 1014.7mb 56f
5:00am 26 29 mph 1014.3mb 56f
4:00am 28 30 mph 1014.1mb 56f
3:00am 26 29 mph 1014.3mb 56f
2:00am 25 28 mph 1014.8mb 56f
1:00am 25 28 mph 1014.8mb 56f
12:00am 26 29 mph 1015.2mb 56f
Thu 07/20 11:00pm 28 30 mph 1015.3mb 57f
10:00pm 29 30 mph 1015.5mb 56f
9:00pm 32 34 mph 1015.2mb 57f
8:00pm 29 31 mph 1015.2mb 56f
7:00pm 30 33 mph 1015.2mb 56f
6:00pm 31 34 mph 1015.4mb 56f
5:00pm 28 30 mph 1015.9mb 56f
4:00pm 28 31 mph 1016.6mb 56f
3:00pm 24 25 mph 1017.5mb 56f
2:00pm 20 22 mph 1018mb 56f
1:00pm 22 22 mph 1018.3mb 56f
12:00pm 21 22 mph 1018.5mb 55f
11:00am 18 20 mph 1018.4mb 55f
10:00am 20 21 mph 1018mb 55f
9:00am 20 22 mph 1017.5mb 55f
8:00am 21 23 mph 1017.3mb 55f
7:00am 14 15 mph 1017.6mb 56f
6:00am 18 21 mph 1017.1mb 56f
5:00am 24 26 mph 1016.2mb 56f
4:00am 25 29 mph 1016mb 56f
3:00am 28 30 mph 1015.8mb 56f
2:00am 25 28 mph 1015.8mb 56f
1:00am 24 26 mph 1016.1mb 57f
12:00am 28 30 mph 1015.9mb 57f
Wed 07/19 11:00pm 26 29 mph 1015.9mb 57f
10:00pm 33 36 mph 1015.7mb 57f
9:00pm 31 33 mph 1015.3mb 57f
8:00pm 31 33 mph 1015.1mb 57f
7:00pm 29 30 mph 1014.9mb 57f
6:00pm 29 31 mph 1015.1mb 57f
5:00pm 25 29 mph 1015.4mb 56f
4:00pm 23 25 mph 1016.1mb 56f
3:00pm 22 23 mph 1016.6mb 56f
2:00pm 20 22 mph 1017.1mb 56f
1:00pm 20 21 mph 1017.4mb 56f
12:00pm 18 22 mph 1017.3mb 56f
11:00am 18 20 mph 1017.3mb 55f
10:00am 17 18 mph 1016.8mb 55f
9:00am 16 17 mph 1016.9mb 55f
8:00am 15 16 mph 1016.8mb 55f
7:00am 14 16 mph 1016.6mb 56f
6:00am 15 17 mph 1015.7mb 56f
5:00am 23 24 mph 1014.9mb 56f
4:00am 25 28 mph 1014.3mb 57f
3:00am 25 26 mph 1014.4mb 57f
2:00am 23 26 mph 1014.6mb 57f
1:00am 23 25 mph 1014.7mb 58f
12:00am 22 25 mph 1014.9mb 58f
Tue 07/18 11:00pm 28 30 mph 1014.3mb 59f
10:00pm 26 30 mph 1014.1mb 60f
9:00pm 25 29 mph 1013.8mb 61f
8:00pm 26 30 mph 1013.3mb 60f
7:00pm 30 32 mph 1013.3mb 60f
6:00pm 30 31 mph 1013.5mb 59f
5:00pm 30 31 mph 1013.8mb 59f
4:00pm 24 25 mph 1014.6mb 58f
3:00pm 20 21 mph 1015.5mb 58f
2:00pm 13 14 mph 1016mb 59f
1:00pm 1 2 mph 1016.1mb 61f
12:00pm 3 5 mph 1016mb 58f
11:00am 5 7 mph 1015.8mb 59f
10:00am 5 5 mph 1015.7mb 58f
9:00am 3 5 mph 1015.6mb 58f
8:00am 2 3 mph 1015.2mb 57f